createdAt,value
2016-10-18T00:00:12.221Z,1009.3
2016-10-18T00:01:12.241Z,1009.28
2016-10-18T00:02:12.366Z,1009.26
2016-10-18T00:03:12.283Z,1009.25
2016-10-18T00:04:12.304Z,1009.24
2016-10-18T00:05:12.323Z,1009.24
2016-10-18T00:06:12.342Z,1009.21
2016-10-18T00:07:12.359Z,1009.2
2016-10-18T00:08:12.380Z,1009.19
2016-10-18T00:09:12.400Z,1009.19
2016-10-18T00:10:12.423Z,1009.21
2016-10-18T00:11:12.438Z,1009.24
2016-10-18T00:12:12.456Z,1009.25
2016-10-18T00:13:12.476Z,1009.28
2016-10-18T00:14:12.502Z,1009.28
2016-10-18T00:15:12.514Z,1009.3
2016-10-18T00:16:12.534Z,1009.3
2016-10-18T00:17:12.553Z,1009.33
2016-10-18T00:18:12.571Z,1009.31
2016-10-18T00:19:12.591Z,1009.34
2016-10-18T00:20:12.611Z,1009.34
2016-10-18T00:21:12.629Z,1009.32
2016-10-18T00:22:12.648Z,1009.34
2016-10-18T00:23:12.667Z,1009.33
2016-10-18T00:24:12.687Z,1009.34
2016-10-18T00:25:12.706Z,1009.3
2016-10-18T00:26:12.728Z,1009.32
2016-10-18T00:27:12.743Z,1009.34
2016-10-18T00:28:12.762Z,1009.38
2016-10-18T00:29:12.782Z,1009.38
2016-10-18T00:30:12.801Z,1009.37
2016-10-18T00:31:12.820Z,1009.4
2016-10-18T00:32:12.839Z,1009.38
2016-10-18T00:33:12.858Z,1009.39
2016-10-18T00:34:12.877Z,1009.36
2016-10-18T00:35:12.898Z,1009.41
2016-10-18T00:36:12.915Z,1009.39
2016-10-18T00:37:12.936Z,1009.37
2016-10-18T00:38:12.954Z,1009.35
2016-10-18T00:39:12.974Z,1009.37
2016-10-18T00:40:12.991Z,1009.35
2016-10-18T00:41:13.011Z,1009.43
2016-10-18T00:42:13.030Z,1009.42
2016-10-18T00:43:13.048Z,1009.46
2016-10-18T00:44:13.067Z,1009.46
2016-10-18T00:45:13.087Z,1009.45
2016-10-18T00:46:13.106Z,1009.43
2016-10-18T00:47:13.123Z,1009.48
2016-10-18T00:48:13.143Z,1009.45
2016-10-18T00:49:13.163Z,1009.45
2016-10-18T00:50:13.182Z,1009.47
2016-10-18T00:51:13.202Z,1009.44
2016-10-18T00:52:13.223Z,1009.44
2016-10-18T00:53:13.242Z,1009.4
2016-10-18T00:54:13.258Z,1009.41
2016-10-18T00:55:13.277Z,1009.4
2016-10-18T00:56:13.297Z,1009.37
2016-10-18T00:57:13.315Z,1009.42
2016-10-18T00:58:13.333Z,1009.36
2016-10-18T00:59:13.352Z,1009.41
2016-10-18T01:00:13.372Z,1009.35
2016-10-18T01:01:13.391Z,1009.35
2016-10-18T01:02:13.411Z,1009.39
2016-10-18T01:03:13.429Z,1009.37
2016-10-18T01:04:13.449Z,1009.38
2016-10-18T01:05:13.467Z,1009.39
2016-10-18T01:06:13.486Z,1009.37
2016-10-18T01:07:13.506Z,1009.41
2016-10-18T01:08:13.525Z,1009.38
2016-10-18T01:09:13.543Z,1009.35
2016-10-18T01:10:13.562Z,1009.38
2016-10-18T01:11:13.581Z,1009.35
2016-10-18T01:12:13.600Z,1009.32
2016-10-18T01:13:13.619Z,1009.3
2016-10-18T01:14:13.646Z,1009.28
2016-10-18T01:15:13.657Z,1009.31
2016-10-18T01:16:13.675Z,1009.32
2016-10-18T01:17:13.695Z,1009.3
2016-10-18T01:18:13.714Z,1009.27
2016-10-18T01:19:13.734Z,1009.28
2016-10-18T01:20:13.753Z,1009.28
2016-10-18T01:21:13.770Z,1009.28
2016-10-18T01:22:13.790Z,1009.26
2016-10-18T01:23:13.809Z,1009.24
2016-10-18T01:24:13.827Z,1009.23
2016-10-18T01:25:13.846Z,1009.22
2016-10-18T01:26:13.866Z,1009.23
2016-10-18T01:27:13.885Z,1009.26
2016-10-18T01:28:13.903Z,1009.23
2016-10-18T01:29:13.922Z,1009.26
2016-10-18T01:30:13.941Z,1009.27
2016-10-18T01:31:13.959Z,1009.27
2016-10-18T01:32:13.979Z,1009.27
2016-10-18T01:33:13.998Z,1009.27
2016-10-18T01:34:14.016Z,1009.28
2016-10-18T01:35:14.036Z,1009.31
2016-10-18T01:36:14.054Z,1009.33
2016-10-18T01:37:14.074Z,1009.35
2016-10-18T01:38:14.092Z,1009.35
2016-10-18T01:39:14.111Z,1009.33
2016-10-18T01:40:14.130Z,1009.29
2016-10-18T01:41:14.149Z,1009.3
2016-10-18T01:42:14.171Z,1009.28
2016-10-18T01:43:14.186Z,1009.27
2016-10-18T01:44:14.205Z,1009.24
2016-10-18T01:45:14.223Z,1009.24
2016-10-18T01:46:14.242Z,1009.23
2016-10-18T01:47:14.265Z,1009.25
2016-10-18T01:48:14.287Z,1009.24
2016-10-18T01:49:14.299Z,1009.23
2016-10-18T01:50:14.317Z,1009.21
2016-10-18T01:51:14.337Z,1009.18
2016-10-18T01:52:14.356Z,1009.16
2016-10-18T01:53:14.374Z,1009.18
2016-10-18T01:54:14.393Z,1009.22
2016-10-18T01:55:14.412Z,1009.2
2016-10-18T01:56:14.430Z,1009.21
2016-10-18T01:57:14.450Z,1009.17
2016-10-18T01:58:14.470Z,1009.15
2016-10-18T01:59:14.488Z,1009.19
2016-10-18T02:00:14.506Z,1009.14
2016-10-18T02:01:14.525Z,1009.13
2016-10-18T02:02:14.544Z,1009.1
2016-10-18T02:03:14.562Z,1009.13
2016-10-18T02:04:14.581Z,1009.13
2016-10-18T02:05:14.600Z,1009.16
2016-10-18T02:06:14.619Z,1009.11
2016-10-18T02:07:14.636Z,1009.15
2016-10-18T02:08:14.656Z,1009.12
2016-10-18T02:09:14.675Z,1009.12
2016-10-18T02:10:14.694Z,1009.14
2016-10-18T02:11:14.712Z,1009.11
2016-10-18T02:12:14.834Z,1009.17
2016-10-18T02:13:14.833Z,1009.18
2016-10-18T02:14:14.831Z,1009.18
2016-10-18T02:15:14.840Z,1009.17
2016-10-18T02:16:14.849Z,1009.15
2016-10-18T02:17:15.159Z,1009.16
2016-10-18T02:18:14.867Z,1009.15
2016-10-18T02:19:14.866Z,1009.14
2016-10-18T02:20:14.881Z,1009.14
2016-10-18T02:21:15.017Z,1009.13
2016-10-18T02:22:15.052Z,1009.12
2016-10-18T02:23:15.035Z,1009.12
2016-10-18T02:24:15.059Z,1009.08
2016-10-18T02:25:15.069Z,1009.1
2016-10-18T02:26:15.092Z,1009.13
2016-10-18T02:27:15.169Z,1009.13
2016-10-18T02:28:15.099Z,1009.19
2016-10-18T02:29:15.134Z,1009.17
2016-10-18T02:30:15.142Z,1009.19
2016-10-18T02:31:15.166Z,1009.21
2016-10-18T02:32:15.207Z,1009.16
2016-10-18T02:33:15.159Z,1009.16
2016-10-18T02:34:15.167Z,1009.17
2016-10-18T02:35:15.177Z,1009.12
2016-10-18T02:36:15.186Z,1009.12
2016-10-18T02:37:15.251Z,1009.14
2016-10-18T02:38:15.219Z,1009.12
2016-10-18T02:39:15.238Z,1009.12
2016-10-18T02:40:15.256Z,1009.1
2016-10-18T02:41:15.277Z,1009.12
2016-10-18T02:42:15.295Z,1009.13
2016-10-18T02:43:15.313Z,1009.11
2016-10-18T02:44:15.331Z,1009.08
2016-10-18T02:45:15.351Z,1009.06
2016-10-18T02:46:15.369Z,1009.14
2016-10-18T02:47:15.387Z,1009.13
2016-10-18T02:48:15.428Z,1009.11
2016-10-18T02:49:15.426Z,1009.11
2016-10-18T02:50:15.445Z,1009.09
2016-10-18T02:51:15.463Z,1009.12
2016-10-18T02:52:15.482Z,1009.12
2016-10-18T02:53:15.500Z,1009.09
2016-10-18T02:54:15.519Z,1009.08
2016-10-18T02:55:15.538Z,1009.07
2016-10-18T02:56:15.557Z,1009.08
2016-10-18T02:57:15.576Z,1009.06
2016-10-18T02:58:15.593Z,1009.04
2016-10-18T02:59:15.612Z,1009
2016-10-18T03:00:15.634Z,1009.04
2016-10-18T03:01:15.656Z,1008.99
2016-10-18T03:02:15.671Z,1009
2016-10-18T03:03:15.687Z,1009.02
2016-10-18T03:04:15.706Z,1009.02
2016-10-18T03:05:15.725Z,1009.02
2016-10-18T03:06:15.771Z,1009
2016-10-18T03:07:15.772Z,1008.97
2016-10-18T03:08:15.780Z,1008.97
2016-10-18T03:09:15.830Z,1008.94
2016-10-18T03:10:15.858Z,1008.96
2016-10-18T03:11:15.837Z,1008.97
2016-10-18T03:12:15.856Z,1008.96
2016-10-18T03:13:15.888Z,1008.97
2016-10-18T03:14:15.931Z,1008.99
2016-10-18T03:15:15.912Z,1008.98
2016-10-18T03:16:15.931Z,1009.03
2016-10-18T03:17:15.949Z,1009
2016-10-18T03:18:15.968Z,1008.97
2016-10-18T03:19:15.987Z,1008.97
2016-10-18T03:20:16.005Z,1008.95
2016-10-18T03:21:16.024Z,1008.94
2016-10-18T03:22:16.042Z,1008.96
2016-10-18T03:23:16.061Z,1008.91
2016-10-18T03:24:16.081Z,1008.96
2016-10-18T03:25:16.098Z,1008.93
2016-10-18T03:26:16.117Z,1008.93
2016-10-18T03:27:16.136Z,1008.93
2016-10-18T03:28:16.155Z,1008.93
2016-10-18T03:29:16.173Z,1008.91
2016-10-18T03:30:16.192Z,1008.93
2016-10-18T03:31:16.211Z,1008.93
2016-10-18T03:32:16.228Z,1008.89
2016-10-18T03:33:16.248Z,1008.89
2016-10-18T03:34:16.267Z,1008.87
2016-10-18T03:35:16.284Z,1008.87
2016-10-18T03:36:16.304Z,1008.86
2016-10-18T03:37:16.323Z,1008.85
2016-10-18T03:38:16.342Z,1008.82
2016-10-18T03:39:16.359Z,1008.82
2016-10-18T03:40:16.378Z,1008.82
2016-10-18T03:41:16.397Z,1008.85
2016-10-18T03:42:16.416Z,1008.8
2016-10-18T03:43:16.433Z,1008.84
2016-10-18T03:44:16.453Z,1008.83
2016-10-18T03:45:16.471Z,1008.79
2016-10-18T03:46:16.489Z,1008.81
2016-10-18T03:47:16.509Z,1008.83
2016-10-18T03:48:16.528Z,1008.85
2016-10-18T03:49:16.546Z,1008.83
2016-10-18T03:50:16.564Z,1008.85
2016-10-18T03:51:16.584Z,1008.86
2016-10-18T03:52:16.602Z,1008.87
2016-10-18T03:53:16.621Z,1008.87
2016-10-18T03:54:16.639Z,1008.87
2016-10-18T03:55:16.657Z,1008.84
2016-10-18T03:56:16.676Z,1008.84
2016-10-18T03:57:16.696Z,1008.87
2016-10-18T03:58:16.713Z,1008.88
2016-10-18T03:59:16.732Z,1008.93
2016-10-18T04:00:16.751Z,1008.87
2016-10-18T04:01:16.769Z,1008.91
2016-10-18T04:02:16.786Z,1008.94
2016-10-18T04:03:16.806Z,1008.93
2016-10-18T04:04:16.826Z,1008.98
2016-10-18T04:05:16.845Z,1008.98
2016-10-18T04:06:16.864Z,1008.98
2016-10-18T04:07:16.882Z,1008.96
2016-10-18T04:08:16.898Z,1008.97
2016-10-18T04:09:16.916Z,1008.97
2016-10-18T04:10:16.936Z,1008.99
2016-10-18T04:11:16.955Z,1009
2016-10-18T04:12:16.974Z,1008.98
2016-10-18T04:13:16.993Z,1008.95
2016-10-18T04:14:17.012Z,1008.98
2016-10-18T04:15:17.029Z,1009.01
2016-10-18T04:16:17.049Z,1009.02
2016-10-18T04:17:17.067Z,1009.01
2016-10-18T04:18:17.086Z,1009.01
2016-10-18T04:19:17.104Z,1009.01
2016-10-18T04:20:17.122Z,1008.99
2016-10-18T04:21:17.142Z,1009.01
2016-10-18T04:22:17.160Z,1009.03
2016-10-18T04:23:17.178Z,1009
2016-10-18T04:24:17.197Z,1009.02
2016-10-18T04:25:17.215Z,1009.05
2016-10-18T04:26:17.234Z,1009.04
2016-10-18T04:27:17.252Z,1009.06
2016-10-18T04:28:17.271Z,1009.07
2016-10-18T04:29:17.292Z,1009.07
2016-10-18T04:30:17.309Z,1009.1
2016-10-18T04:31:17.327Z,1009.1
2016-10-18T04:32:17.346Z,1009.13
2016-10-18T04:33:17.363Z,1009.1
2016-10-18T04:34:17.382Z,1009.11
2016-10-18T04:35:17.401Z,1009.09
2016-10-18T04:36:17.420Z,1009.08
2016-10-18T04:37:17.437Z,1009.08
2016-10-18T04:38:17.457Z,1009.09
2016-10-18T04:39:17.476Z,1009.07
2016-10-18T04:40:17.498Z,1009.06
2016-10-18T04:41:17.514Z,1009.05
2016-10-18T04:42:17.532Z,1009.06
2016-10-18T04:43:17.550Z,1009.04
2016-10-18T04:44:17.568Z,1009.02
2016-10-18T04:45:17.586Z,1008.99
2016-10-18T04:46:17.605Z,1008.97
2016-10-18T04:47:17.623Z,1009.01
2016-10-18T04:48:17.641Z,1009.01
2016-10-18T04:49:17.661Z,1008.98
2016-10-18T04:50:17.680Z,1008.98
2016-10-18T04:51:17.715Z,1008.97
2016-10-18T04:52:17.716Z,1008.96
2016-10-18T04:53:17.736Z,1008.95
2016-10-18T04:54:17.754Z,1008.98
2016-10-18T04:55:17.772Z,1008.98
2016-10-18T04:56:17.790Z,1008.96
2016-10-18T04:57:17.808Z,1008.94
2016-10-18T04:58:17.829Z,1008.97
2016-10-18T04:59:17.844Z,1008.93
2016-10-18T05:00:17.863Z,1008.91
2016-10-18T05:01:17.882Z,1008.91
2016-10-18T05:02:17.902Z,1008.92
2016-10-18T05:03:17.918Z,1008.91
2016-10-18T05:04:17.938Z,1008.88
2016-10-18T05:05:17.955Z,1008.88
2016-10-18T05:06:17.973Z,1008.88
2016-10-18T05:07:17.992Z,1008.87
2016-10-18T05:08:18.011Z,1008.88
2016-10-18T05:09:18.029Z,1008.85
2016-10-18T05:10:18.047Z,1008.86
2016-10-18T05:11:18.068Z,1008.88
2016-10-18T05:12:18.084Z,1008.81
2016-10-18T05:13:18.103Z,1008.8
2016-10-18T05:14:18.120Z,1008.85
2016-10-18T05:15:18.139Z,1008.85
2016-10-18T05:16:18.158Z,1008.87
2016-10-18T05:17:18.175Z,1008.84
2016-10-18T05:18:18.197Z,1008.88
2016-10-18T05:19:18.213Z,1008.79
2016-10-18T05:20:18.233Z,1008.82
2016-10-18T05:21:18.249Z,1008.84
2016-10-18T05:22:18.269Z,1008.83
2016-10-18T05:23:18.288Z,1008.8
2016-10-18T05:24:18.307Z,1008.8
2016-10-18T05:25:18.323Z,1008.82
2016-10-18T05:26:18.343Z,1008.84
2016-10-18T05:27:18.360Z,1008.81
2016-10-18T05:28:18.385Z,1008.84
2016-10-18T05:29:18.399Z,1008.79
2016-10-18T05:30:18.417Z,1008.85
2016-10-18T05:31:18.436Z,1008.86
2016-10-18T05:32:18.507Z,1008.87
2016-10-18T05:33:18.477Z,1008.9
2016-10-18T05:34:18.498Z,1008.84
2016-10-18T05:35:18.510Z,1008.86
2016-10-18T05:36:18.528Z,1008.89
2016-10-18T05:37:18.547Z,1008.87
2016-10-18T05:38:18.565Z,1008.91
2016-10-18T05:39:18.584Z,1008.92
2016-10-18T05:40:18.602Z,1008.92
2016-10-18T05:41:18.621Z,1008.93
2016-10-18T05:42:18.640Z,1008.91
2016-10-18T05:43:18.658Z,1008.91
2016-10-18T05:44:18.679Z,1008.92
2016-10-18T05:45:18.696Z,1008.91
2016-10-18T05:46:18.714Z,1008.9
2016-10-18T05:47:18.733Z,1008.91
2016-10-18T05:48:18.751Z,1008.91
2016-10-18T05:49:18.771Z,1008.91
2016-10-18T05:50:18.790Z,1008.95
2016-10-18T05:51:18.809Z,1008.95
2016-10-18T05:52:18.826Z,1009
2016-10-18T05:53:18.845Z,1009
2016-10-18T05:54:18.863Z,1009
2016-10-18T05:55:18.883Z,1009.02
2016-10-18T05:56:18.905Z,1008.98
2016-10-18T05:57:18.923Z,1008.99
2016-10-18T05:58:18.937Z,1008.96
2016-10-18T05:59:18.960Z,1008.99
2016-10-18T06:00:18.974Z,1008.99
2016-10-18T06:01:18.993Z,1009
2016-10-18T06:02:19.011Z,1009.03
2016-10-18T06:03:19.031Z,1009.06
2016-10-18T06:04:19.049Z,1009.05
2016-10-18T06:05:19.069Z,1009.08
2016-10-18T06:06:19.086Z,1009.09
2016-10-18T06:07:19.105Z,1009.06
2016-10-18T06:08:19.123Z,1009.08
2016-10-18T06:09:19.144Z,1009.1
2016-10-18T06:10:19.161Z,1009.12
2016-10-18T06:11:19.180Z,1009.09
2016-10-18T06:12:19.197Z,1009.13
2016-10-18T06:13:19.216Z,1009.11
2016-10-18T06:14:19.235Z,1009.12
2016-10-18T06:15:19.254Z,1009.18
2016-10-18T06:16:19.272Z,1009.17
2016-10-18T06:17:19.291Z,1009.17
2016-10-18T06:18:19.309Z,1009.23
2016-10-18T06:19:19.327Z,1009.15
2016-10-18T06:20:19.347Z,1009.23
2016-10-18T06:21:19.366Z,1009.21
2016-10-18T06:22:19.384Z,1009.24
2016-10-18T06:23:19.402Z,1009.22
2016-10-18T06:24:19.421Z,1009.27
2016-10-18T06:25:19.439Z,1009.26
2016-10-18T06:26:19.459Z,1009.26
2016-10-18T06:27:19.478Z,1009.26
2016-10-18T06:28:19.495Z,1009.3
2016-10-18T06:29:19.514Z,1009.26
2016-10-18T06:30:19.534Z,1009.28
2016-10-18T06:31:19.553Z,1009.27
2016-10-18T06:32:19.571Z,1009.29
2016-10-18T06:33:19.589Z,1009.29
2016-10-18T06:34:19.610Z,1009.31
2016-10-18T06:35:19.628Z,1009.32
2016-10-18T06:36:19.645Z,1009.34
2016-10-18T06:37:19.662Z,1009.31
2016-10-18T06:38:19.684Z,1009.34
2016-10-18T06:39:19.700Z,1009.33
2016-10-18T06:40:19.719Z,1009.35
2016-10-18T06:41:19.737Z,1009.32
2016-10-18T06:42:19.756Z,1009.36
2016-10-18T06:43:19.775Z,1009.35
2016-10-18T06:44:19.794Z,1009.34
2016-10-18T06:45:19.810Z,1009.38
2016-10-18T06:46:19.832Z,1009.39
2016-10-18T06:47:19.851Z,1009.35
2016-10-18T06:48:19.870Z,1009.35
2016-10-18T06:49:19.886Z,1009.35
2016-10-18T06:50:19.905Z,1009.36
2016-10-18T06:51:19.926Z,1009.33
2016-10-18T06:52:19.946Z,1009.37
2016-10-18T06:53:19.965Z,1009.4
2016-10-18T06:54:19.980Z,1009.35
2016-10-18T06:55:20.003Z,1009.37
2016-10-18T06:56:20.018Z,1009.4
2016-10-18T06:57:20.038Z,1009.35
2016-10-18T06:58:20.055Z,1009.41
2016-10-18T06:59:20.072Z,1009.4
2016-10-18T07:00:20.090Z,1009.38
2016-10-18T07:01:20.111Z,1009.38
2016-10-18T07:02:20.131Z,1009.37
2016-10-18T07:03:20.147Z,1009.42
2016-10-18T07:04:20.166Z,1009.42
2016-10-18T07:05:20.185Z,1009.42
2016-10-18T07:06:20.204Z,1009.43
2016-10-18T07:07:20.222Z,1009.42
2016-10-18T07:08:20.240Z,1009.41
2016-10-18T07:09:20.260Z,1009.45
2016-10-18T07:10:20.282Z,1009.39
2016-10-18T07:11:20.300Z,1009.43
2016-10-18T07:12:20.319Z,1009.42
2016-10-18T07:13:20.337Z,1009.43
2016-10-18T07:14:20.355Z,1009.42
2016-10-18T07:15:20.372Z,1009.39
2016-10-18T07:16:20.392Z,1009.4
2016-10-18T07:17:20.409Z,1009.41
2016-10-18T07:18:20.427Z,1009.39
2016-10-18T07:19:20.447Z,1009.41
2016-10-18T07:20:20.464Z,1009.43
2016-10-18T07:21:20.486Z,1009.44
2016-10-18T07:22:20.504Z,1009.43
2016-10-18T07:23:20.522Z,1009.4
2016-10-18T07:24:20.539Z,1009.43
2016-10-18T07:25:20.592Z,1009.43
2016-10-18T07:26:20.581Z,1009.42
2016-10-18T07:27:20.596Z,1009.43
2016-10-18T07:28:20.617Z,1009.42
2016-10-18T07:29:20.633Z,1009.45
2016-10-18T07:30:20.651Z,1009.41
2016-10-18T07:31:20.671Z,1009.43
2016-10-18T07:32:20.689Z,1009.39
2016-10-18T07:33:20.709Z,1009.38
2016-10-18T07:34:20.728Z,1009.41
2016-10-18T07:35:20.749Z,1009.38
2016-10-18T07:36:20.767Z,1009.41
2016-10-18T07:37:20.783Z,1009.34
2016-10-18T07:38:20.805Z,1009.31
2016-10-18T07:39:20.822Z,1009.34
2016-10-18T07:40:20.841Z,1009.37
2016-10-18T07:41:20.859Z,1009.36
2016-10-18T07:42:20.877Z,1009.33
2016-10-18T07:43:20.896Z,1009.3
2016-10-18T07:44:20.915Z,1009.31
2016-10-18T07:45:20.934Z,1009.35
2016-10-18T07:46:20.953Z,1009.31
2016-10-18T07:47:20.971Z,1009.36
2016-10-18T07:48:20.990Z,1009.37
2016-10-18T07:49:21.009Z,1009.38
2016-10-18T07:50:21.028Z,1009.34
2016-10-18T07:51:21.047Z,1009.36
2016-10-18T07:52:21.066Z,1009.36
2016-10-18T07:53:21.086Z,1009.39
2016-10-18T07:54:21.102Z,1009.38
2016-10-18T07:55:21.121Z,1009.38
2016-10-18T07:56:21.178Z,1009.35
2016-10-18T07:57:21.160Z,1009.36
2016-10-18T07:58:21.182Z,1009.36
2016-10-18T07:59:21.198Z,1009.35
2016-10-18T08:00:21.218Z,1009.36
2016-10-18T08:01:21.237Z,1009.33
2016-10-18T08:02:21.254Z,1009.31
2016-10-18T08:03:21.274Z,1009.32
2016-10-18T08:04:21.291Z,1009.32
2016-10-18T08:05:21.312Z,1009.31
2016-10-18T08:06:21.330Z,1009.31
2016-10-18T08:07:21.349Z,1009.35
2016-10-18T08:08:21.371Z,1009.32
2016-10-18T08:09:21.385Z,1009.32
2016-10-18T08:10:21.406Z,1009.33
2016-10-18T08:11:21.424Z,1009.31
2016-10-18T08:12:21.444Z,1009.28
2016-10-18T08:13:21.462Z,1009.3
2016-10-18T08:14:21.480Z,1009.31
2016-10-18T08:15:21.502Z,1009.28
2016-10-18T08:16:21.518Z,1009.33
2016-10-18T08:17:21.536Z,1009.31
2016-10-18T08:18:21.557Z,1009.29
2016-10-18T08:19:21.576Z,1009.31
2016-10-18T08:20:21.594Z,1009.26
2016-10-18T08:21:21.615Z,1009.35
2016-10-18T08:22:21.633Z,1009.37
2016-10-18T08:23:21.653Z,1009.31
2016-10-18T08:24:21.669Z,1009.32
2016-10-18T08:25:21.691Z,1009.32
2016-10-18T08:26:21.708Z,1009.31
2016-10-18T08:27:21.727Z,1009.33
2016-10-18T08:28:21.747Z,1009.31
2016-10-18T08:29:21.766Z,1009.33
2016-10-18T08:30:21.785Z,1009.31
2016-10-18T08:31:21.804Z,1009.35
2016-10-18T08:32:21.824Z,1009.35
2016-10-18T08:33:21.844Z,1009.33
2016-10-18T08:34:21.862Z,1009.32
2016-10-18T08:35:21.880Z,1009.32
2016-10-18T08:36:21.900Z,1009.3
2016-10-18T08:37:21.919Z,1009.34
2016-10-18T08:38:21.938Z,1009.33
2016-10-18T08:39:21.956Z,1009.38
2016-10-18T08:40:21.977Z,1009.36
2016-10-18T08:41:21.997Z,1009.35
2016-10-18T08:42:22.014Z,1009.35
2016-10-18T08:43:22.034Z,1009.36
2016-10-18T08:44:22.053Z,1009.33
2016-10-18T08:45:22.075Z,1009.39
2016-10-18T08:46:22.091Z,1009.39
2016-10-18T08:47:22.110Z,1009.38
2016-10-18T08:48:22.130Z,1009.42
2016-10-18T08:49:22.149Z,1009.42
2016-10-18T08:50:22.168Z,1009.45
2016-10-18T08:51:22.188Z,1009.44
2016-10-18T08:52:22.208Z,1009.44
2016-10-18T08:53:22.227Z,1009.46
2016-10-18T08:54:22.248Z,1009.49
2016-10-18T08:55:22.265Z,1009.49
2016-10-18T08:56:22.285Z,1009.49
2016-10-18T08:57:22.305Z,1009.47
2016-10-18T08:58:22.325Z,1009.46
2016-10-18T08:59:22.344Z,1009.49
2016-10-18T09:00:22.362Z,1009.45
2016-10-18T09:01:22.385Z,1009.43
2016-10-18T09:02:22.406Z,1009.45
2016-10-18T09:03:22.423Z,1009.44
2016-10-18T09:04:22.442Z,1009.4
2016-10-18T09:05:22.461Z,1009.4
2016-10-18T09:06:22.481Z,1009.42
2016-10-18T09:07:22.498Z,1009.39
2016-10-18T09:08:22.519Z,1009.44
2016-10-18T09:09:22.539Z,1009.4
2016-10-18T09:10:22.559Z,1009.41
2016-10-18T09:11:22.578Z,1009.44
2016-10-18T09:12:22.598Z,1009.45
2016-10-18T09:13:22.618Z,1009.43
2016-10-18T09:14:22.638Z,1009.45
2016-10-18T09:15:22.657Z,1009.45
2016-10-18T09:16:22.677Z,1009.44
2016-10-18T09:17:22.699Z,1009.43
2016-10-18T09:18:22.715Z,1009.45
2016-10-18T09:19:22.736Z,1009.45
2016-10-18T09:20:22.755Z,1009.47
2016-10-18T09:21:22.778Z,1009.44
2016-10-18T09:22:22.800Z,1009.44
2016-10-18T09:23:22.821Z,1009.48
2016-10-18T09:24:22.836Z,1009.48
2016-10-18T09:25:22.856Z,1009.46
2016-10-18T09:26:22.876Z,1009.46
2016-10-18T09:27:22.894Z,1009.51
2016-10-18T09:28:22.915Z,1009.52
2016-10-18T09:29:22.938Z,1009.5
2016-10-18T09:30:22.954Z,1009.52
2016-10-18T09:31:22.976Z,1009.52
2016-10-18T09:32:22.995Z,1009.52
2016-10-18T09:33:23.015Z,1009.5
2016-10-18T09:34:23.037Z,1009.5
2016-10-18T09:35:23.055Z,1009.51
2016-10-18T09:36:23.075Z,1009.5
2016-10-18T09:37:23.095Z,1009.48
2016-10-18T09:38:23.115Z,1009.47
2016-10-18T09:39:23.135Z,1009.48
2016-10-18T09:40:23.157Z,1009.5
2016-10-18T09:41:23.178Z,1009.52
2016-10-18T09:42:23.195Z,1009.46
2016-10-18T09:43:23.215Z,1009.5
2016-10-18T09:44:23.235Z,1009.51
2016-10-18T09:45:23.257Z,1009.51
2016-10-18T09:46:23.276Z,1009.51
2016-10-18T09:47:23.296Z,1009.48
2016-10-18T09:48:23.316Z,1009.51
2016-10-18T09:49:23.335Z,1009.48
2016-10-18T09:50:23.361Z,1009.49
2016-10-18T09:51:23.376Z,1009.47
2016-10-18T09:52:23.403Z,1009.46
2016-10-18T09:53:23.418Z,1009.51
2016-10-18T09:54:23.438Z,1009.48
2016-10-18T09:55:23.456Z,1009.51
2016-10-18T09:56:23.477Z,1009.47
2016-10-18T09:57:23.500Z,1009.46
2016-10-18T09:58:23.520Z,1009.44
2016-10-18T09:59:23.538Z,1009.49
2016-10-18T10:00:23.559Z,1009.44
2016-10-18T10:01:23.579Z,1009.47
2016-10-18T10:02:23.599Z,1009.43
2016-10-18T10:03:23.619Z,1009.4
2016-10-18T10:04:23.641Z,1009.43
2016-10-18T10:05:23.664Z,1009.43
2016-10-18T10:06:23.684Z,1009.44
2016-10-18T10:07:23.701Z,1009.42
2016-10-18T10:08:23.721Z,1009.48
2016-10-18T10:09:23.742Z,1009.45
2016-10-18T10:10:23.762Z,1009.43
2016-10-18T10:11:23.782Z,1009.45
2016-10-18T10:12:23.805Z,1009.44
2016-10-18T10:13:23.827Z,1009.41
2016-10-18T10:14:23.845Z,1009.45
2016-10-18T10:15:23.864Z,1009.42
2016-10-18T10:16:23.886Z,1009.41
2016-10-18T10:17:23.905Z,1009.42
2016-10-18T10:18:23.927Z,1009.42
2016-10-18T10:19:23.947Z,1009.41
2016-10-18T10:20:23.973Z,1009.41
2016-10-18T10:21:23.989Z,1009.46
2016-10-18T10:22:24.009Z,1009.46
2016-10-18T10:23:24.029Z,1009.47
2016-10-18T10:24:24.050Z,1009.46
2016-10-18T10:25:24.071Z,1009.45
2016-10-18T10:26:24.091Z,1009.46
2016-10-18T10:27:24.114Z,1009.45
2016-10-18T10:28:24.498Z,1009.47
2016-10-18T10:29:24.259Z,1009.46
2016-10-18T10:30:24.268Z,1009.45
2016-10-18T10:31:24.293Z,1009.43
2016-10-18T10:32:24.444Z,1009.46
2016-10-18T10:33:24.310Z,1009.42
2016-10-18T10:34:24.319Z,1009.4
2016-10-18T10:35:24.331Z,1009.39
2016-10-18T10:36:24.390Z,1009.4
2016-10-18T10:37:24.510Z,1009.4
2016-10-18T10:38:24.404Z,1009.41
2016-10-18T10:39:24.414Z,1009.37
2016-10-18T10:40:24.414Z,1009.36
2016-10-18T10:41:24.426Z,1009.35
2016-10-18T10:42:24.622Z,1009.35
2016-10-18T10:43:24.443Z,1009.36
2016-10-18T10:44:24.561Z,1009.35
2016-10-18T10:45:24.562Z,1009.36
2016-10-18T10:46:24.595Z,1009.29
2016-10-18T10:47:24.603Z,1009.32
2016-10-18T10:48:24.546Z,1009.3
2016-10-18T10:49:24.567Z,1009.27
2016-10-18T10:50:24.588Z,1009.27
2016-10-18T10:51:24.608Z,1009.29
2016-10-18T10:52:24.629Z,1009.27
2016-10-18T10:53:24.649Z,1009.24
2016-10-18T10:54:24.670Z,1009.27
2016-10-18T10:55:24.692Z,1009.25
2016-10-18T10:56:24.713Z,1009.22
2016-10-18T10:57:24.733Z,1009.19
2016-10-18T10:58:24.753Z,1009.17
2016-10-18T10:59:24.775Z,1009.15
2016-10-18T11:00:24.795Z,1009.16
2016-10-18T11:01:24.815Z,1009.11
2016-10-18T11:02:24.837Z,1009.08
2016-10-18T11:03:24.858Z,1009.08
2016-10-18T11:04:24.877Z,1009.09
2016-10-18T11:05:24.898Z,1009.07
2016-10-18T11:06:24.918Z,1009.02
2016-10-18T11:07:24.940Z,1009.05
2016-10-18T11:08:24.960Z,1009.06
2016-10-18T11:09:24.981Z,1009.01
2016-10-18T11:10:25.002Z,1009
2016-10-18T11:11:25.040Z,1009.01
2016-10-18T11:12:25.044Z,1009.02
2016-10-18T11:13:25.071Z,1008.99
2016-10-18T11:14:25.088Z,1008.98
2016-10-18T11:15:25.105Z,1008.92
2016-10-18T11:16:25.127Z,1008.95
2016-10-18T11:17:25.146Z,1008.96
2016-10-18T11:18:25.168Z,1008.96
2016-10-18T11:19:25.193Z,1008.94
2016-10-18T11:20:25.212Z,1008.91
2016-10-18T11:21:25.231Z,1008.93
2016-10-18T11:22:25.251Z,1008.92
2016-10-18T11:23:25.273Z,1008.91
2016-10-18T11:24:25.293Z,1008.91
2016-10-18T11:25:25.314Z,1008.9
2016-10-18T11:26:25.334Z,1008.91
2016-10-18T11:27:25.354Z,1008.89
2016-10-18T11:28:25.376Z,1008.87
2016-10-18T11:29:25.397Z,1008.92
2016-10-18T11:30:25.419Z,1008.9
2016-10-18T11:31:25.622Z,1008.91
2016-10-18T11:32:25.461Z,1008.89
2016-10-18T11:33:25.481Z,1008.89
2016-10-18T11:34:25.503Z,1008.86
2016-10-18T11:35:25.523Z,1008.89
2016-10-18T11:36:25.544Z,1008.88
2016-10-18T11:37:25.564Z,1008.85
2016-10-18T11:38:25.588Z,1008.85
2016-10-18T11:39:25.611Z,1008.83
2016-10-18T11:40:25.627Z,1008.84
2016-10-18T11:41:25.649Z,1008.83
2016-10-18T11:42:25.671Z,1008.84
2016-10-18T11:43:25.691Z,1008.82
2016-10-18T11:44:25.713Z,1008.83
2016-10-18T11:45:25.733Z,1008.8
2016-10-18T11:46:25.756Z,1008.81
2016-10-18T11:47:25.776Z,1008.86
2016-10-18T11:48:25.796Z,1008.86
2016-10-18T11:49:25.818Z,1008.86
2016-10-18T11:50:25.840Z,1008.87
2016-10-18T11:51:25.861Z,1008.8
2016-10-18T11:52:25.881Z,1008.8
2016-10-18T11:53:25.903Z,1008.78
2016-10-18T11:54:25.927Z,1008.78
2016-10-18T11:55:25.948Z,1008.78
2016-10-18T11:56:25.967Z,1008.81
2016-10-18T11:57:25.988Z,1008.73
2016-10-18T11:58:26.010Z,1008.72
2016-10-18T11:59:26.031Z,1008.72
2016-10-18T12:00:26.052Z,1008.7
2016-10-18T12:01:26.073Z,1008.71
2016-10-18T12:02:26.103Z,1008.66
2016-10-18T12:03:26.115Z,1008.66
2016-10-18T12:04:26.144Z,1008.65
2016-10-18T12:05:26.160Z,1008.63
2016-10-18T12:06:26.181Z,1008.64
2016-10-18T12:07:26.203Z,1008.65
2016-10-18T12:08:26.225Z,1008.64